createdAt,value
2023-04-15T00:09:38.223Z,100563.78
2023-04-15T00:19:39.563Z,100549.19
2023-04-15T00:29:40.791Z,100557.97
2023-04-15T00:39:42.044Z,100548.28
2023-04-15T00:49:43.284Z,100558.81
2023-04-15T00:59:44.528Z,100552.59
2023-04-15T01:09:45.827Z,100557.25
2023-04-15T01:19:47.091Z,100552.00
2023-04-15T01:29:48.332Z,100565.25
2023-04-15T01:39:49.629Z,100557.38
2023-04-15T01:49:50.876Z,100555.28
2023-04-15T01:59:52.115Z,100546.91
2023-04-15T02:09:53.377Z,100547.13
2023-04-15T02:19:54.596Z,100562.75
2023-04-15T02:29:55.862Z,100570.47
2023-04-15T02:39:57.112Z,100579.44
2023-04-15T02:49:58.404Z,100583.91
2023-04-15T02:59:59.700Z,100589.00
2023-04-15T03:10:01.094Z,100590.84
2023-04-15T03:20:02.448Z,100601.47
2023-04-15T03:30:03.797Z,100610.00
2023-04-15T03:40:05.028Z,100614.47
2023-04-15T03:50:06.361Z,100632.81
2023-04-15T04:00:07.654Z,100631.94
2023-04-15T04:10:08.956Z,100644.25
2023-04-15T04:20:10.228Z,100664.22
2023-04-15T04:30:11.553Z,100674.81
2023-04-15T04:40:12.847Z,100683.66
2023-04-15T04:50:14.121Z,100696.59
2023-04-15T05:00:15.375Z,100710.94
2023-04-15T05:10:16.628Z,100722.72
2023-04-15T05:20:17.892Z,100749.47
2023-04-15T05:30:19.180Z,100760.97
2023-04-15T05:40:26.767Z,100786.19
2023-04-15T05:50:29.342Z,100802.59
2023-04-15T06:00:30.619Z,100821.00
2023-04-15T06:10:31.917Z,100826.53
2023-04-15T06:20:33.206Z,100847.00
2023-04-15T06:30:34.486Z,100859.31
2023-04-15T06:51:07.660Z,100900.53
2023-04-15T07:01:31.819Z,100917.09
2023-04-15T07:11:39.810Z,100923.34
2023-04-15T07:21:42.007Z,100950.69
2023-04-15T07:31:43.383Z,100950.50
2023-04-15T07:41:44.635Z,100973.41
2023-04-15T07:51:46.199Z,100989.31
2023-04-15T08:01:53.884Z,100995.53
2023-04-15T08:12:01.742Z,101010.53
2023-04-15T08:22:11.229Z,101036.75
2023-04-15T08:32:19.857Z,101040.47
2023-04-15T08:42:27.785Z,101051.06
2023-04-15T08:52:35.783Z,101078.19
2023-04-15T09:02:43.896Z,101090.56
2023-04-15T09:12:51.825Z,101108.84
2023-04-15T09:22:59.791Z,101125.59
2023-04-15T09:33:07.840Z,101148.22
2023-04-15T09:43:18.704Z,101151.75
2023-04-15T09:53:23.990Z,101154.41
2023-04-15T10:03:32.020Z,101164.06
2023-04-15T10:13:43.654Z,101175.38
2023-04-15T10:23:48.963Z,101178.88
2023-04-15T10:33:56.995Z,101188.53
2023-04-15T10:44:04.997Z,101195.63
2023-04-15T10:54:12.845Z,101197.16
2023-04-15T11:14:42.808Z,101208.56
2023-04-15T11:24:44.157Z,101204.22
2023-04-15T11:34:45.896Z,101224.22
2023-04-15T11:44:56.892Z,101238.81
2023-04-15T12:05:26.861Z,101245.84
2023-04-15T12:15:28.126Z,101257.00
2023-04-15T12:25:33.245Z,101273.78
2023-04-15T12:35:41.130Z,101290.34
2023-04-15T12:45:43.850Z,101306.00
2023-04-15T12:55:52.815Z,101315.63
2023-04-15T13:06:00.844Z,101329.44
2023-04-15T13:16:08.845Z,101333.91
2023-04-15T13:26:16.848Z,101334.91
2023-04-15T13:36:25.818Z,101351.47
2023-04-15T13:56:56.378Z,101376.06
2023-04-15T14:06:57.670Z,101386.56
2023-04-15T14:16:59.010Z,101401.34
2023-04-15T14:37:48.657Z,101439.81
2023-04-15T14:47:50.077Z,101436.31
2023-04-15T15:08:20.098Z,101478.88
2023-04-15T15:18:21.332Z,101484.09
2023-04-15T15:28:22.908Z,101497.13
2023-04-15T15:38:24.404Z,101504.94
2023-04-15T15:48:25.800Z,101535.63
2023-04-15T15:58:28.192Z,101554.00
2023-04-15T16:08:29.794Z,101569.13
2023-04-15T16:18:37.873Z,101590.00
2023-04-15T16:28:50.610Z,101597.88
2023-04-15T16:38:59.151Z,101624.97
2023-04-15T16:49:03.026Z,101631.16
2023-04-15T16:59:10.877Z,101640.22
2023-04-15T17:09:23.105Z,101660.41
2023-04-15T17:19:28.303Z,101671.03
2023-04-15T17:29:35.920Z,101671.19
2023-04-15T17:39:44.025Z,101682.53
2023-04-15T17:49:51.901Z,101704.44
2023-04-15T18:00:00.914Z,101708.81
2023-04-15T18:10:08.255Z,101708.09
2023-04-15T18:20:16.922Z,101711.66
2023-04-15T18:30:18.237Z,101728.31
2023-04-15T18:40:19.906Z,101747.63
2023-04-15T18:50:21.159Z,101752.88
2023-04-15T19:00:22.417Z,101777.38
2023-04-15T19:10:23.791Z,101789.69
2023-04-15T19:20:25.074Z,101797.59
2023-04-15T19:30:26.299Z,101822.09
2023-04-15T19:40:27.551Z,101827.28
2023-04-15T19:50:28.826Z,101843.09
2023-04-15T20:00:30.091Z,101848.34
2023-04-15T20:10:31.382Z,101846.59
2023-04-15T20:20:32.667Z,101843.19
2023-04-15T20:30:33.928Z,101853.75
2023-04-15T20:40:35.166Z,101855.47
2023-04-15T20:50:36.474Z,101865.16
2023-04-15T21:00:37.775Z,101875.53
2023-04-15T21:10:39.045Z,101874.81
2023-04-15T21:20:40.290Z,101882.66
2023-04-15T21:30:41.550Z,101886.16
2023-04-15T21:40:42.856Z,101903.78
2023-04-15T21:50:44.170Z,101907.00
2023-04-15T22:00:45.431Z,101907.84
2023-04-15T22:10:46.678Z,101920.06
2023-04-15T22:20:47.962Z,101910.34
2023-04-15T22:30:49.218Z,101914.78
2023-04-15T22:40:50.463Z,101929.66
2023-04-15T22:50:51.736Z,101934.91
2023-04-15T23:00:52.972Z,101953.25
2023-04-15T23:10:54.209Z,101970.78
2023-04-15T23:20:55.496Z,101969.88
2023-04-15T23:30:58.020Z,101974.25
2023-04-15T23:41:01.058Z,101981.22
2023-04-15T23:51:02.380Z,101977.72
